createdAt,value
2018-08-14T00:00:20.885Z,98840.00
2018-08-14T00:02:25.437Z,98847.00
2018-08-14T00:04:29.966Z,98844.00
2018-08-14T00:06:34.454Z,98850.00
2018-08-14T00:08:38.957Z,98845.00
2018-08-14T00:10:43.472Z,98849.00
2018-08-14T00:12:48.002Z,98846.00
2018-08-14T00:14:54.305Z,98841.00
2018-08-14T00:17:01.084Z,98843.00
2018-08-14T00:19:05.622Z,98856.00
2018-08-14T00:21:10.126Z,98844.00
2018-08-14T00:23:14.696Z,98854.00
2018-08-14T00:25:19.326Z,98853.00
2018-08-14T00:27:23.817Z,98855.00
2018-08-14T00:29:28.297Z,98858.00
2018-08-14T00:31:32.784Z,98851.00
2018-08-14T00:33:38.091Z,98857.00
2018-08-14T00:35:42.822Z,98846.00
2018-08-14T00:37:47.334Z,98848.00
2018-08-14T00:39:52.535Z,98855.00
2018-08-14T00:41:57.030Z,98859.00
2018-08-14T00:44:01.522Z,98855.00
2018-08-14T00:46:06.030Z,98850.00
2018-08-14T00:48:10.789Z,98850.00
2018-08-14T00:50:16.163Z,98859.00
2018-08-14T00:52:20.783Z,98847.00
2018-08-14T00:54:25.318Z,98846.00
2018-08-14T00:56:29.874Z,98846.00
2018-08-14T00:58:34.333Z,98845.00
2018-08-14T01:00:42.086Z,98842.00
2018-08-14T01:02:49.057Z,98842.00
2018-08-14T01:04:56.434Z,98841.00
2018-08-14T01:07:02.314Z,98837.00
2018-08-14T01:09:10.433Z,98831.00
2018-08-14T01:11:17.953Z,98843.00
2018-08-14T01:13:24.086Z,98843.00
2018-08-14T01:15:30.381Z,98845.00
2018-08-14T01:17:37.934Z,98839.00
2018-08-14T01:19:45.669Z,98845.00
2018-08-14T01:21:53.889Z,98846.00
2018-08-14T01:24:00.553Z,98847.00
2018-08-14T01:26:08.171Z,98845.00
2018-08-14T01:28:15.870Z,98845.00
2018-08-14T01:30:30.618Z,98842.00
2018-08-14T01:32:37.615Z,98840.00
2018-08-14T01:34:45.182Z,98844.00
2018-08-14T01:36:54.362Z,98843.00
2018-08-14T01:39:02.005Z,98840.00
2018-08-14T01:41:11.381Z,98836.00
2018-08-14T01:43:19.690Z,98839.00
2018-08-14T01:45:26.777Z,98844.00
2018-08-14T01:47:31.568Z,98843.00
2018-08-14T01:49:38.062Z,98849.00
2018-08-14T01:51:46.070Z,98849.00
2018-08-14T01:53:52.970Z,98846.00
2018-08-14T01:55:58.610Z,98842.00
2018-08-14T01:58:05.963Z,98832.00
2018-08-14T02:00:10.914Z,98833.00
2018-08-14T02:02:15.663Z,98835.00
2018-08-14T02:04:23.166Z,98830.00
2018-08-14T02:06:30.032Z,98831.00
2018-08-14T02:08:38.222Z,98834.00
2018-08-14T02:10:45.854Z,98833.00
2018-08-14T02:12:53.834Z,98824.00
2018-08-14T02:15:01.033Z,98827.00
2018-08-14T02:17:08.461Z,98826.00
2018-08-14T02:19:13.061Z,98833.00
2018-08-14T02:21:17.570Z,98834.00
2018-08-14T02:23:22.047Z,98828.00
2018-08-14T02:25:26.501Z,98826.00
2018-08-14T02:27:30.951Z,98838.00
2018-08-14T02:29:35.562Z,98837.00
2018-08-14T02:31:40.094Z,98831.00
2018-08-14T02:33:44.625Z,98837.00
2018-08-14T02:35:49.128Z,98846.00
2018-08-14T02:37:53.686Z,98837.00
2018-08-14T02:39:58.161Z,98842.00
2018-08-14T02:42:03.342Z,98841.00
2018-08-14T02:44:07.914Z,98846.00
2018-08-14T02:46:12.390Z,98849.00
2018-08-14T02:48:16.950Z,98839.00
2018-08-14T02:50:21.514Z,98842.00
2018-08-14T02:52:26.054Z,98850.00
2018-08-14T02:54:30.578Z,98840.00
2018-08-14T02:56:35.078Z,98837.00
2018-08-14T02:58:39.652Z,98838.00
2018-08-14T03:00:44.166Z,98841.00
2018-08-14T03:02:48.697Z,98851.00
2018-08-14T03:04:53.917Z,98846.00
2018-08-14T03:06:58.450Z,98832.00
2018-08-14T03:09:03.012Z,98847.00
2018-08-14T03:11:09.338Z,98843.00
2018-08-14T03:13:13.803Z,98847.00
2018-08-14T03:15:20.437Z,98853.00
2018-08-14T03:17:25.298Z,98850.00
2018-08-14T03:19:29.812Z,98851.00
2018-08-14T03:21:34.631Z,98858.00
2018-08-14T03:23:39.187Z,98855.00
2018-08-14T03:25:43.669Z,98859.00
2018-08-14T03:27:48.546Z,98864.00
2018-08-14T03:29:53.053Z,98863.00
2018-08-14T03:31:57.674Z,98855.00
2018-08-14T03:34:02.327Z,98859.00
2018-08-14T03:36:06.774Z,98859.00
2018-08-14T03:38:11.369Z,98873.00
2018-08-14T03:40:20.493Z,98861.00
2018-08-14T03:42:24.925Z,98869.00
2018-08-14T03:44:29.385Z,98872.00
2018-08-14T03:46:33.887Z,98869.00
2018-08-14T03:48:38.442Z,98876.00
2018-08-14T03:50:42.910Z,98879.00
2018-08-14T03:52:47.480Z,98880.00
2018-08-14T03:54:52.065Z,98878.00
2018-08-14T03:56:56.509Z,98879.00
2018-08-14T03:59:01.037Z,98891.00
2018-08-14T04:01:08.346Z,98890.00
2018-08-14T04:03:14.864Z,98900.00
2018-08-14T04:05:21.409Z,98904.00
2018-08-14T04:07:27.430Z,98902.00
2018-08-14T04:09:35.247Z,98896.00
2018-08-14T04:11:42.387Z,98894.00
2018-08-14T04:13:48.466Z,98883.00
2018-08-14T04:15:53.043Z,98888.00
2018-08-14T04:18:05.663Z,98892.00
2018-08-14T04:20:12.641Z,98894.00
2018-08-14T04:22:17.078Z,98899.00
2018-08-14T04:24:21.614Z,98902.00
2018-08-14T04:26:26.415Z,98902.00
2018-08-14T04:28:31.046Z,98911.00
2018-08-14T04:30:35.573Z,98915.00
2018-08-14T04:32:41.449Z,98909.00
2018-08-14T04:34:45.942Z,98918.00
2018-08-14T04:36:50.425Z,98918.00
2018-08-14T04:38:54.946Z,98924.00
2018-08-14T04:40:59.421Z,98919.00
2018-08-14T04:43:03.930Z,98919.00
2018-08-14T04:45:08.779Z,98920.00
2018-08-14T04:47:13.306Z,98928.00
2018-08-14T04:49:17.759Z,98933.00
2018-08-14T04:51:22.449Z,98931.00
2018-08-14T04:53:26.978Z,98932.00
2018-08-14T04:55:31.404Z,98934.00
2018-08-14T04:57:35.913Z,98943.00
2018-08-14T04:59:40.442Z,98935.00
2018-08-14T05:01:44.965Z,98944.00
2018-08-14T05:03:49.607Z,98942.00
2018-08-14T05:05:54.325Z,98947.00
2018-08-14T05:07:58.859Z,98944.00
2018-08-14T05:10:03.399Z,98949.00
2018-08-14T05:12:08.102Z,98949.00
2018-08-14T05:14:12.590Z,98949.00
2018-08-14T05:16:17.045Z,98954.00
2018-08-14T05:18:21.498Z,98953.00
2018-08-14T05:20:26.255Z,98964.00
2018-08-14T05:22:30.761Z,98951.00
2018-08-14T05:24:35.289Z,98960.00
2018-08-14T05:26:39.773Z,98960.00
2018-08-14T05:28:44.315Z,98968.00
2018-08-14T05:30:48.902Z,98961.00
2018-08-14T05:32:53.379Z,98962.00
2018-08-14T05:34:57.850Z,98962.00
2018-08-14T05:37:02.468Z,98968.00
2018-08-14T05:39:10.097Z,98971.00
2018-08-14T05:41:14.681Z,98966.00
2018-08-14T05:43:19.162Z,98975.00
2018-08-14T05:45:23.721Z,98969.00
2018-08-14T05:47:28.205Z,98968.00
2018-08-14T05:49:32.749Z,98976.00
2018-08-14T05:51:37.198Z,98989.00
2018-08-14T05:53:41.682Z,98982.00
2018-08-14T05:55:46.170Z,98983.00
2018-08-14T05:57:50.693Z,98989.00
2018-08-14T05:59:55.150Z,98998.00
2018-08-14T06:01:59.750Z,98991.00
2018-08-14T06:04:04.861Z,98993.00
2018-08-14T06:06:09.367Z,98993.00
2018-08-14T06:08:13.863Z,98993.00
2018-08-14T06:10:18.515Z,98989.00
2018-08-14T06:12:23.043Z,99002.00
2018-08-14T06:14:27.558Z,98997.00
2018-08-14T06:16:32.399Z,99012.00
2018-08-14T06:18:36.932Z,99003.00
2018-08-14T06:20:41.532Z,99005.00
2018-08-14T06:22:46.664Z,98998.00
2018-08-14T06:24:51.277Z,98998.00
2018-08-14T06:26:55.797Z,99014.00
2018-08-14T06:29:00.279Z,99006.00
2018-08-14T06:31:04.891Z,99015.00
2018-08-14T06:33:09.782Z,99020.00
2018-08-14T06:35:16.205Z,99012.00
2018-08-14T06:37:20.963Z,99020.00
2018-08-14T06:39:25.458Z,99019.00
2018-08-14T06:41:31.970Z,99018.00
2018-08-14T06:43:36.549Z,99024.00
2018-08-14T06:45:41.040Z,99036.00
2018-08-14T06:47:45.678Z,99030.00
2018-08-14T06:49:50.174Z,99031.00
2018-08-14T06:51:54.646Z,99038.00
2018-08-14T06:53:59.193Z,99044.00
2018-08-14T06:56:03.759Z,99042.00
2018-08-14T06:58:08.338Z,99043.00
2018-08-14T07:00:16.281Z,99053.00
2018-08-14T07:02:20.809Z,99051.00
2018-08-14T07:04:25.445Z,99062.00
2018-08-14T07:06:29.974Z,99050.00
2018-08-14T07:08:34.475Z,99056.00
2018-08-14T07:10:39.050Z,99062.00
2018-08-14T07:12:43.586Z,99064.00
2018-08-14T07:14:48.218Z,99069.00
2018-08-14T07:16:52.835Z,99077.00
2018-08-14T07:18:57.373Z,99064.00
2018-08-14T07:21:01.894Z,99071.00
2018-08-14T07:23:08.349Z,99080.00
2018-08-14T07:25:14.702Z,99077.00
2018-08-14T07:27:19.194Z,99077.00
2018-08-14T07:29:23.683Z,99082.00
2018-08-14T07:31:28.174Z,99081.00
2018-08-14T07:33:33.013Z,99077.00
2018-08-14T07:35:37.606Z,99090.00
2018-08-14T07:37:43.360Z,99092.00
2018-08-14T07:39:47.841Z,99099.00
2018-08-14T07:41:52.335Z,99097.00
2018-08-14T07:43:58.210Z,99094.00
2018-08-14T07:46:02.710Z,99097.00
2018-08-14T07:48:07.508Z,99102.00
2018-08-14T07:50:13.332Z,99102.00
2018-08-14T07:52:17.877Z,99101.00
2018-08-14T07:54:22.388Z,99106.00
2018-08-14T07:56:27.810Z,99109.00
2018-08-14T07:58:32.311Z,99109.00
2018-08-14T08:00:36.794Z,99109.00
2018-08-14T08:02:41.308Z,99113.00
2018-08-14T08:04:45.769Z,99109.00
2018-08-14T08:06:50.534Z,99117.00
2018-08-14T08:08:55.034Z,99114.00
2018-08-14T08:10:59.610Z,99118.00
2018-08-14T08:13:04.217Z,99118.00
2018-08-14T08:15:14.440Z,99118.00
2018-08-14T08:17:18.946Z,99120.00
2018-08-14T08:19:26.429Z,99127.00
2018-08-14T08:21:30.930Z,99119.00
2018-08-14T08:23:35.451Z,99129.00
2018-08-14T08:25:40.188Z,99124.00
2018-08-14T08:27:44.666Z,99138.00
2018-08-14T08:29:49.181Z,99133.00
2018-08-14T08:31:53.739Z,99124.00
2018-08-14T08:33:58.299Z,99132.00
2018-08-14T08:36:02.815Z,99140.00
2018-08-14T08:38:07.484Z,99134.00
2018-08-14T08:40:12.321Z,99136.00
2018-08-14T08:42:16.818Z,99132.00
2018-08-14T08:44:21.289Z,99136.00
2018-08-14T08:46:25.792Z,99139.00
2018-08-14T08:48:30.487Z,99141.00
2018-08-14T08:50:34.998Z,99150.00
2018-08-14T08:52:39.579Z,99153.00
2018-08-14T08:54:44.037Z,99153.00
2018-08-14T08:56:48.525Z,99153.00
2018-08-14T08:58:53.130Z,99145.00
2018-08-14T09:00:57.758Z,99154.00
2018-08-14T09:03:02.220Z,99156.00
2018-08-14T09:05:09.735Z,99163.00
2018-08-14T09:07:14.318Z,99163.00
2018-08-14T09:09:18.849Z,99169.00
2018-08-14T09:11:23.478Z,99162.00
2018-08-14T09:13:29.305Z,99170.00
2018-08-14T09:15:40.394Z,99175.00
2018-08-14T09:17:44.943Z,99172.00
2018-08-14T09:19:50.556Z,99181.00
2018-08-14T09:21:55.289Z,99176.00
2018-08-14T09:23:59.767Z,99174.00
2018-08-14T09:26:04.372Z,99183.00
2018-08-14T09:28:08.921Z,99168.00
2018-08-14T09:30:16.589Z,99172.00
2018-08-14T09:32:21.214Z,99178.00
2018-08-14T09:34:26.346Z,99180.00
2018-08-14T09:36:30.943Z,99190.00
2018-08-14T09:38:35.662Z,99179.00
2018-08-14T09:40:47.803Z,99184.00
2018-08-14T09:42:54.182Z,99193.00
2018-08-14T09:44:58.698Z,99188.00
2018-08-14T09:47:03.303Z,99190.00
2018-08-14T09:49:08.207Z,99192.00
2018-08-14T09:51:12.697Z,99193.00
2018-08-14T09:53:17.249Z,99198.00
2018-08-14T09:55:22.650Z,99205.00
2018-08-14T09:57:27.183Z,99200.00
2018-08-14T09:59:31.813Z,99204.00
2018-08-14T10:01:41.446Z,99205.00
2018-08-14T10:04:26.700Z,99207.00
2018-08-14T10:06:36.479Z,99204.00
2018-08-14T10:08:41.153Z,99212.00
2018-08-14T10:10:48.388Z,99216.00
2018-08-14T10:12:53.166Z,99207.00
2018-08-14T10:15:01.778Z,99214.00
2018-08-14T10:17:07.132Z,99219.00
2018-08-14T10:19:11.799Z,99215.00
2018-08-14T10:21:16.334Z,99222.00
2018-08-14T10:23:20.922Z,99218.00
2018-08-14T10:25:25.577Z,99231.00
2018-08-14T10:27:30.174Z,99229.00
2018-08-14T10:29:34.922Z,99238.00
2018-08-14T10:31:39.518Z,99240.00
2018-08-14T10:33:46.736Z,99241.00
2018-08-14T10:35:55.741Z,99235.00
2018-08-14T10:38:04.248Z,99233.00
2018-08-14T10:40:13.098Z,99234.00
2018-08-14T10:42:17.673Z,99241.00
2018-08-14T10:44:24.811Z,99235.00
2018-08-14T10:46:29.462Z,99235.00
2018-08-14T10:48:36.583Z,99235.00
2018-08-14T10:50:41.050Z,99240.00
2018-08-14T10:52:46.694Z,99240.00
2018-08-14T10:54:51.282Z,99245.00
2018-08-14T10:56:55.763Z,99241.00
2018-08-14T10:59:00.325Z,99239.00
2018-08-14T11:01:04.826Z,99237.00
2018-08-14T11:03:09.386Z,99243.00
2018-08-14T11:05:14.522Z,99247.00
2018-08-14T11:07:19.021Z,99249.00
2018-08-14T11:09:23.514Z,99258.00
2018-08-14T11:11:29.865Z,99255.00
2018-08-14T11:13:34.510Z,99248.00
2018-08-14T11:15:39.063Z,99244.00
2018-08-14T11:17:44.178Z,99260.00
2018-08-14T11:19:48.794Z,99254.00
2018-08-14T11:21:53.291Z,99260.00
2018-08-14T11:23:57.771Z,99254.00
2018-08-14T11:26:02.269Z,99253.00
2018-08-14T11:28:06.798Z,99264.00
2018-08-14T11:30:18.266Z,99270.00
2018-08-14T11:32:22.853Z,99276.00
2018-08-14T11:34:27.449Z,99269.00
2018-08-14T11:36:32.023Z,99260.00
2018-08-14T11:38:36.697Z,99266.00
2018-08-14T11:40:41.158Z,99260.00
2018-08-14T11:42:45.679Z,99251.00
2018-08-14T11:44:50.185Z,99267.00
2018-08-14T11:46:54.621Z,99270.00
2018-08-14T11:48:59.169Z,99268.00
2018-08-14T11:51:04.010Z,99277.00
2018-08-14T11:53:08.563Z,99275.00
2018-08-14T11:55:13.498Z,99276.00
2018-08-14T11:57:18.424Z,99292.00
2018-08-14T11:59:22.989Z,99280.00
2018-08-14T12:01:27.589Z,99274.00
2018-08-14T12:03:32.157Z,99294.00
2018-08-14T12:05:41.780Z,99286.00
2018-08-14T12:07:46.422Z,99288.00
2018-08-14T12:09:50.971Z,99285.00
2018-08-14T12:11:55.534Z,99298.00
2018-08-14T12:14:00.782Z,99295.00
2018-08-14T12:16:05.266Z,99292.00
2018-08-14T12:18:09.919Z,99290.00
2018-08-14T12:20:16.830Z,99278.00
2018-08-14T12:22:21.389Z,99285.00
2018-08-14T12:24:25.986Z,99290.00
2018-08-14T12:26:30.462Z,99292.00
2018-08-14T12:28:35.023Z,99293.00
2018-08-14T12:30:39.523Z,99296.00
2018-08-14T12:32:44.022Z,99285.00
2018-08-14T12:34:48.476Z,99292.00
2018-08-14T12:36:53.238Z,99289.00
2018-08-14T12:38:57.795Z,99284.00
2018-08-14T12:41:02.303Z,99288.00
2018-08-14T12:43:07.410Z,99296.00
2018-08-14T12:45:19.558Z,99298.00
2018-08-14T12:47:25.614Z,99299.00
2018-08-14T12:49:30.137Z,99295.00
2018-08-14T12:51:34.663Z,99292.00
2018-08-14T12:53:39.249Z,99300.00
2018-08-14T12:55:43.826Z,99296.00
2018-08-14T12:57:49.031Z,99294.00
2018-08-14T12:59:53.501Z,99299.00
2018-08-14T13:01:57.998Z,99309.00
2018-08-14T13:04:02.472Z,99305.00
2018-08-14T13:06:07.105Z,99308.00
2018-08-14T13:08:11.605Z,99304.00
2018-08-14T13:10:16.190Z,99305.00
2018-08-14T13:12:20.729Z,99309.00
2018-08-14T13:14:25.339Z,99311.00
2018-08-14T13:16:29.987Z,99308.00
2018-08-14T13:18:34.525Z,99315.00
2018-08-14T13:20:39.389Z,99308.00
2018-08-14T13:22:43.922Z,99304.00
2018-08-14T13:24:48.399Z,99317.00
2018-08-14T13:26:53.013Z,99323.00
2018-08-14T13:28:57.562Z,99319.00
2018-08-14T13:31:02.137Z,99325.00
2018-08-14T13:33:06.752Z,99321.00
2018-08-14T13:35:11.262Z,99315.00
2018-08-14T13:37:15.726Z,99316.00
2018-08-14T13:39:21.096Z,99330.00
2018-08-14T13:41:25.697Z,99321.00
2018-08-14T13:43:30.240Z,99324.00
2018-08-14T13:45:34.754Z,99332.00
2018-08-14T13:47:39.946Z,99332.00
2018-08-14T13:49:44.418Z,99321.00
2018-08-14T13:51:48.948Z,99331.00
2018-08-14T13:53:53.487Z,99322.00
2018-08-14T13:55:58.014Z,99319.00
2018-08-14T13:58:02.558Z,99338.00
2018-08-14T14:00:11.564Z,99337.00
2018-08-14T14:02:16.069Z,99337.00
2018-08-14T14:04:20.826Z,99331.00
2018-08-14T14:06:25.418Z,99340.00
2018-08-14T14:08:29.945Z,99338.00
2018-08-14T14:10:34.472Z,99348.00
2018-08-14T14:12:38.961Z,99341.00
2018-08-14T14:14:43.491Z,99343.00
2018-08-14T14:16:47.962Z,99343.00
2018-08-14T14:18:52.554Z,99346.00
2018-08-14T14:20:57.081Z,99341.00
2018-08-14T14:23:01.582Z,99342.00
2018-08-14T14:25:06.634Z,99348.00
2018-08-14T14:27:11.146Z,99339.00
2018-08-14T14:29:15.786Z,99342.00
2018-08-14T14:31:20.313Z,99338.00
2018-08-14T14:33:24.890Z,99341.00
2018-08-14T14:35:29.518Z,99347.00
2018-08-14T14:37:34.031Z,99356.00
2018-08-14T14:39:38.690Z,99347.00
2018-08-14T14:41:43.279Z,99352.00
2018-08-14T14:43:47.785Z,99356.00
2018-08-14T14:45:52.358Z,99361.00
2018-08-14T14:47:56.982Z,99356.00
2018-08-14T14:50:01.514Z,99359.00
2018-08-14T14:52:06.202Z,99370.00
2018-08-14T14:54:10.745Z,99356.00
2018-08-14T14:56:15.216Z,99364.00
2018-08-14T14:58:19.742Z,99361.00
2018-08-14T15:00:34.652Z,99354.00
2018-08-14T15:02:39.114Z,99357.00
2018-08-14T15:04:43.619Z,99364.00
2018-08-14T15:06:48.218Z,99361.00
2018-08-14T15:08:52.757Z,99361.00
2018-08-14T15:10:57.282Z,99370.00
2018-08-14T15:13:01.774Z,99373.00
2018-08-14T15:15:07.602Z,99380.00
2018-08-14T15:17:12.231Z,99386.00
2018-08-14T15:19:21.081Z,99385.00
2018-08-14T15:21:25.622Z,99385.00
2018-08-14T15:23:30.114Z,99379.00
2018-08-14T15:25:34.590Z,99388.00
2018-08-14T15:27:49.881Z,99384.00
2018-08-14T15:29:54.641Z,99380.00
2018-08-14T15:32:00.691Z,99378.00
2018-08-14T15:34:06.718Z,99378.00
2018-08-14T15:36:11.206Z,99376.00
2018-08-14T15:38:15.739Z,99384.00
2018-08-14T15:40:20.247Z,99381.00
2018-08-14T15:42:24.666Z,99386.00
2018-08-14T15:44:29.247Z,99388.00
2018-08-14T15:46:34.573Z,99394.00
2018-08-14T15:48:39.442Z,99387.00
2018-08-14T15:50:43.914Z,99397.00
2018-08-14T15:52:48.439Z,99394.00
2018-08-14T15:54:53.917Z,99398.00
2018-08-14T15:56:58.902Z,99400.00
2018-08-14T15:59:03.411Z,99393.00
2018-08-14T16:01:08.953Z,99403.00
2018-08-14T16:03:13.739Z,99398.00
2018-08-14T16:05:18.490Z,99408.00
2018-08-14T16:07:22.975Z,99410.00
2018-08-14T16:09:28.654Z,99408.00
2018-08-14T16:11:33.490Z,99408.00
2018-08-14T16:13:38.004Z,99404.00
2018-08-14T16:15:43.624Z,99399.00
2018-08-14T16:17:48.093Z,99398.00
2018-08-14T16:19:52.613Z,99405.00
2018-08-14T16:21:57.069Z,99403.00
2018-08-14T16:24:01.588Z,99413.00
2018-08-14T16:26:06.576Z,99402.00
2018-08-14T16:28:11.582Z,99409.00
2018-08-14T16:30:16.070Z,99407.00
2018-08-14T16:32:20.814Z,99416.00
2018-08-14T16:34:26.260Z,99410.00
2018-08-14T16:36:36.107Z,99419.00
2018-08-14T16:38:41.361Z,99415.00
2018-08-14T16:40:49.385Z,99414.00
2018-08-14T16:42:54.116Z,99421.00
2018-08-14T16:44:58.654Z,99417.00
2018-08-14T16:47:03.401Z,99421.00
2018-08-14T16:49:07.849Z,99424.00
2018-08-14T16:51:15.709Z,99415.00
2018-08-14T16:53:22.781Z,99424.00
2018-08-14T16:55:31.776Z,99423.00
2018-08-14T16:57:38.750Z,99430.00
2018-08-14T16:59:44.581Z,99431.00
2018-08-14T17:01:52.612Z,99430.00
2018-08-14T17:03:58.291Z,99436.00
2018-08-14T17:06:07.581Z,99426.00
2018-08-14T17:08:16.159Z,99427.00
2018-08-14T17:10:23.423Z,99431.00
2018-08-14T17:12:30.883Z,99437.00
2018-08-14T17:14:38.813Z,99434.00
2018-08-14T17:16:48.571Z,99423.00
2018-08-14T17:18:58.126Z,99436.00
2018-08-14T17:21:01.187Z,99432.00
2018-08-14T17:23:08.439Z,99433.00
2018-08-14T17:25:17.405Z,99430.00
2018-08-14T17:27:23.569Z,99435.00
2018-08-14T17:29:31.913Z,99435.00
2018-08-14T17:31:40.709Z,99442.00
2018-08-14T17:33:47.958Z,99439.00
2018-08-14T17:35:53.569Z,99439.00
2018-08-14T17:38:00.702Z,99433.00
2018-08-14T17:40:13.084Z,99442.00
2018-08-14T17:42:18.050Z,99451.00
2018-08-14T17:44:22.670Z,99451.00
2018-08-14T17:46:30.547Z,99452.00
2018-08-14T17:48:35.825Z,99457.00
2018-08-14T17:50:41.191Z,99454.00
2018-08-14T17:52:45.741Z,99454.00
2018-08-14T17:54:50.382Z,99453.00
2018-08-14T17:56:55.534Z,99461.00
2018-08-14T17:59:00.097Z,99456.00
2018-08-14T18:01:09.687Z,99458.00
2018-08-14T18:03:15.285Z,99464.00
2018-08-14T18:05:22.165Z,99463.00
2018-08-14T18:07:27.494Z,99466.00
2018-08-14T18:09:32.217Z,99468.00
2018-08-14T18:11:38.706Z,99466.00
2018-08-14T18:13:43.158Z,99468.00
2018-08-14T18:15:47.775Z,99471.00
2018-08-14T18:17:52.558Z,99480.00
2018-08-14T18:19:57.001Z,99480.00
2018-08-14T18:22:01.690Z,99483.00
2018-08-14T18:24:06.315Z,99486.00
2018-08-14T18:26:10.796Z,99482.00
2018-08-14T18:28:15.674Z,99488.00
2018-08-14T18:30:21.264Z,99488.00
2018-08-14T18:32:25.714Z,99499.00
2018-08-14T18:34:30.296Z,99496.00
2018-08-14T18:36:34.870Z,99492.00
2018-08-14T18:38:39.369Z,99509.00
2018-08-14T18:40:43.955Z,99508.00
2018-08-14T18:42:49.193Z,99506.00
2018-08-14T18:44:53.741Z,99519.00
2018-08-14T18:46:58.327Z,99521.00
2018-08-14T18:49:02.828Z,99529.00
2018-08-14T18:51:08.296Z,99528.00
2018-08-14T18:53:13.194Z,99534.00
2018-08-14T18:55:19.321Z,99543.00
2018-08-14T18:57:24.306Z,99541.00
2018-08-14T18:59:29.668Z,99543.00
2018-08-14T19:01:34.057Z,99536.00
2018-08-14T19:03:38.527Z,99549.00
2018-08-14T19:05:43.105Z,99566.00
2018-08-14T19:07:47.989Z,99564.00
2018-08-14T19:09:53.030Z,99556.00
2018-08-14T19:11:57.594Z,99547.00
2018-08-14T19:14:03.390Z,99551.00
2018-08-14T19:16:08.001Z,99553.00
2018-08-14T19:18:13.452Z,99563.00
2018-08-14T19:20:18.010Z,99572.00
2018-08-14T19:22:22.923Z,99568.00
2018-08-14T19:24:27.412Z,99570.00
2018-08-14T19:26:32.038Z,99566.00
2018-08-14T19:28:36.504Z,99568.00
2018-08-14T19:30:41.066Z,99578.00
2018-08-14T19:32:45.771Z,99582.00
2018-08-14T19:34:50.379Z,99590.00
2018-08-14T19:36:54.953Z,99595.00
2018-08-14T19:38:59.444Z,99588.00
2018-08-14T19:41:03.986Z,99590.00
2018-08-14T19:43:08.555Z,99591.00
2018-08-14T19:45:12.963Z,99592.00
2018-08-14T19:47:17.513Z,99594.00
2018-08-14T19:49:22.066Z,99593.00
2018-08-14T19:51:26.900Z,99596.00
2018-08-14T19:53:31.966Z,99595.00
2018-08-14T19:55:36.624Z,99597.00
2018-08-14T19:57:44.299Z,99601.00
2018-08-14T19:59:49.626Z,99594.00
2018-08-14T20:01:54.485Z,99594.00
2018-08-14T20:03:59.398Z,99602.00
2018-08-14T20:06:04.516Z,99612.00
2018-08-14T20:08:09.739Z,99616.00
2018-08-14T20:10:14.422Z,99618.00
2018-08-14T20:12:19.626Z,99613.00
2018-08-14T20:14:24.402Z,99617.00
2018-08-14T20:16:28.938Z,99617.00
2018-08-14T20:18:33.511Z,99609.00
2018-08-14T20:20:37.966Z,99621.00
2018-08-14T20:22:44.870Z,99615.00
2018-08-14T20:24:49.509Z,99613.00
2018-08-14T20:26:54.011Z,99616.00
2018-08-14T20:28:58.614Z,99613.00
2018-08-14T20:31:03.141Z,99615.00
2018-08-14T20:33:08.411Z,99619.00
2018-08-14T20:35:14.711Z,99624.00
2018-08-14T20:37:19.229Z,99624.00
2018-08-14T20:39:24.369Z,99622.00
2018-08-14T20:41:29.061Z,99634.00
2018-08-14T20:43:33.693Z,99634.00
2018-08-14T20:45:38.293Z,99635.00
2018-08-14T20:47:43.394Z,99630.00
2018-08-14T20:49:48.129Z,99629.00
2018-08-14T20:51:52.749Z,99635.00
2018-08-14T20:53:57.824Z,99631.00
2018-08-14T20:56:05.099Z,99627.00
2018-08-14T20:58:17.213Z,99630.00
2018-08-14T21:00:27.150Z,99626.00
2018-08-14T21:02:31.783Z,99629.00
2018-08-14T21:04:37.064Z,99644.00
2018-08-14T21:06:41.614Z,99628.00
2018-08-14T21:08:46.107Z,99633.00
2018-08-14T21:10:50.602Z,99621.00
2018-08-14T21:12:55.802Z,99629.00
2018-08-14T21:15:00.309Z,99630.00
2018-08-14T21:17:05.108Z,99629.00
2018-08-14T21:19:09.606Z,99626.00
2018-08-14T21:21:14.545Z,99626.00
2018-08-14T21:23:19.466Z,99629.00
2018-08-14T21:25:24.062Z,99632.00
2018-08-14T21:27:28.773Z,99634.00
2018-08-14T21:29:33.273Z,99639.00
2018-08-14T21:31:37.762Z,99637.00
2018-08-14T21:33:42.393Z,99633.00
2018-08-14T21:35:47.043Z,99636.00
2018-08-14T21:37:51.641Z,99640.00
2018-08-14T21:39:56.165Z,99633.00
2018-08-14T21:42:00.666Z,99644.00
2018-08-14T21:44:05.922Z,99647.00
2018-08-14T21:46:10.464Z,99641.00
2018-08-14T21:48:15.444Z,99647.00
2018-08-14T21:50:20.002Z,99647.00
2018-08-14T21:52:24.630Z,99654.00
2018-08-14T21:54:29.114Z,99653.00
2018-08-14T21:56:33.677Z,99657.00
2018-08-14T21:58:39.265Z,99657.00
2018-08-14T22:01:03.104Z,99657.00
2018-08-14T22:03:07.798Z,99670.00
2018-08-14T22:05:13.434Z,99665.00
2018-08-14T22:07:21.017Z,99672.00
2018-08-14T22:09:30.860Z,99674.00
2018-08-14T22:11:40.115Z,99674.00
2018-08-14T22:13:45.337Z,99668.00
2018-08-14T22:15:49.969Z,99672.00
2018-08-14T22:17:54.442Z,99667.00
2018-08-14T22:19:59.054Z,99686.00
2018-08-14T22:22:03.502Z,99675.00
2018-08-14T22:24:08.425Z,99680.00
2018-08-14T22:26:13.044Z,99677.00
2018-08-14T22:28:17.578Z,99675.00
2018-08-14T22:30:22.198Z,99668.00
2018-08-14T22:32:26.709Z,99670.00
2018-08-14T22:34:31.346Z,99677.00
2018-08-14T22:36:35.872Z,99676.00
2018-08-14T22:38:40.421Z,99685.00
2018-08-14T22:40:45.025Z,99683.00
2018-08-14T22:42:49.584Z,99689.00
2018-08-14T22:44:54.082Z,99686.00
2018-08-14T22:46:58.742Z,99691.00
2018-08-14T22:49:03.222Z,99681.00
2018-08-14T22:51:07.816Z,99693.00
2018-08-14T22:53:12.245Z,99681.00
2018-08-14T22:55:16.834Z,99692.00
2018-08-14T22:57:21.382Z,99693.00
2018-08-14T22:59:26.607Z,99694.00
2018-08-14T23:01:31.067Z,99695.00
2018-08-14T23:03:35.558Z,99694.00
2018-08-14T23:05:40.030Z,99698.00
2018-08-14T23:07:44.591Z,99694.00
2018-08-14T23:09:49.242Z,99687.00
2018-08-14T23:11:53.858Z,99693.00
2018-08-14T23:13:58.331Z,99694.00
2018-08-14T23:16:05.625Z,99688.00
2018-08-14T23:18:10.055Z,99689.00
2018-08-14T23:20:15.058Z,99693.00
2018-08-14T23:22:19.586Z,99691.00
2018-08-14T23:24:24.601Z,99688.00
2018-08-14T23:26:29.160Z,99698.00
2018-08-14T23:28:33.701Z,99698.00
2018-08-14T23:30:38.207Z,99702.00
2018-08-14T23:32:42.869Z,99706.00
2018-08-14T23:34:47.339Z,99699.00
2018-08-14T23:36:51.790Z,99709.00
2018-08-14T23:38:56.236Z,99711.00
2018-08-14T23:41:00.730Z,99703.00
2018-08-14T23:43:05.262Z,99703.00
2018-08-14T23:45:10.849Z,99700.00
2018-08-14T23:47:15.325Z,99694.00
2018-08-14T23:49:19.765Z,99709.00
2018-08-14T23:51:24.367Z,99705.00
2018-08-14T23:53:28.794Z,99711.00
2018-08-14T23:55:33.327Z,99707.00
2018-08-14T23:57:38.057Z,99702.00
2018-08-14T23:59:42.542Z,99701.00
